sensor_id;sensor_type;location;lat;lon;timestamp;P1;durP1;ratioP1;P2;durP2;ratioP2
5491;SDS011;2768;53.540;10.224;2023-08-07T00:00:16;2.97;;;2.30;;
5491;SDS011;2768;53.540;10.224;2023-08-07T00:06:11;5.63;;;2.73;;
5491;SDS011;2768;53.540;10.224;2023-08-07T00:12:04;6.33;;;2.90;;
5491;SDS011;2768;53.540;10.224;2023-08-07T00:17:58;3.90;;;2.40;;
5491;SDS011;2768;53.540;10.224;2023-08-07T00:23:53;5.50;;;2.27;;
5491;SDS011;2768;53.540;10.224;2023-08-07T00:29:46;2.90;;;2.10;;
5491;SDS011;2768;53.540;10.224;2023-08-07T00:35:39;3.60;;;2.10;;
5491;SDS011;2768;53.540;10.224;2023-08-07T00:41:34;3.17;;;1.73;;
5491;SDS011;2768;53.540;10.224;2023-08-07T00:47:28;3.37;;;1.90;;
5491;SDS011;2768;53.540;10.224;2023-08-07T00:53:21;2.30;;;2.00;;
5491;SDS011;2768;53.540;10.224;2023-08-07T00:59:16;2.67;;;2.03;;
5491;SDS011;2768;53.540;10.224;2023-08-07T01:05:10;2.00;;;1.80;;
5491;SDS011;2768;53.540;10.224;2023-08-07T01:11:16;2.10;;;1.90;;
5491;SDS011;2768;53.540;10.224;2023-08-07T01:17:16;3.73;;;1.77;;
5491;SDS011;2768;53.540;10.224;2023-08-07T01:23:13;4.23;;;1.80;;
5491;SDS011;2768;53.540;10.224;2023-08-07T01:29:13;3.80;;;1.67;;
5491;SDS011;2768;53.540;10.224;2023-08-07T01:35:14;1.87;;;1.77;;
5491;SDS011;2768;53.540;10.224;2023-08-07T01:41:10;2.13;;;1.90;;
5491;SDS011;2768;53.540;10.224;2023-08-07T01:47:04;4.03;;;1.93;;
5491;SDS011;2768;53.540;10.224;2023-08-07T01:52:58;3.00;;;1.90;;
5491;SDS011;2768;53.540;10.224;2023-08-07T01:58:55;3.60;;;1.97;;
5491;SDS011;2768;53.540;10.224;2023-08-07T02:04:48;2.10;;;1.73;;
5491;SDS011;2768;53.540;10.224;2023-08-07T02:10:42;2.83;;;1.77;;
5491;SDS011;2768;53.540;10.224;2023-08-07T02:16:37;2.10;;;1.67;;
5491;SDS011;2768;53.540;10.224;2023-08-07T02:22:30;2.83;;;1.60;;
5491;SDS011;2768;53.540;10.224;2023-08-07T02:28:24;1.70;;;1.60;;
5491;SDS011;2768;53.540;10.224;2023-08-07T02:34:19;2.97;;;1.53;;
5491;SDS011;2768;53.540;10.224;2023-08-07T02:40:12;2.63;;;1.70;;
5491;SDS011;2768;53.540;10.224;2023-08-07T02:46:07;3.33;;;1.83;;
5491;SDS011;2768;53.540;10.224;2023-08-07T02:52:02;3.10;;;1.53;;
5491;SDS011;2768;53.540;10.224;2023-08-07T02:57:56;3.17;;;1.77;;
5491;SDS011;2768;53.540;10.224;2023-08-07T03:03:49;4.40;;;1.80;;
5491;SDS011;2768;53.540;10.224;2023-08-07T03:09:46;1.87;;;1.77;;
5491;SDS011;2768;53.540;10.224;2023-08-07T03:15:39;1.97;;;1.50;;
5491;SDS011;2768;53.540;10.224;2023-08-07T03:21:33;3.07;;;1.93;;
5491;SDS011;2768;53.540;10.224;2023-08-07T03:27:28;1.77;;;1.60;;
5491;SDS011;2768;53.540;10.224;2023-08-07T03:33:21;2.80;;;2.23;;
5491;SDS011;2768;53.540;10.224;2023-08-07T03:39:16;2.03;;;1.70;;
5491;SDS011;2768;53.540;10.224;2023-08-07T03:45:11;4.37;;;1.50;;
5491;SDS011;2768;53.540;10.224;2023-08-07T03:51:05;4.07;;;1.70;;
5491;SDS011;2768;53.540;10.224;2023-08-07T03:57:13;4.60;;;1.60;;
5491;SDS011;2768;53.540;10.224;2023-08-07T04:03:08;3.83;;;1.70;;
5491;SDS011;2768;53.540;10.224;2023-08-07T04:09:02;4.50;;;2.00;;
5491;SDS011;2768;53.540;10.224;2023-08-07T04:14:55;2.70;;;1.80;;
5491;SDS011;2768;53.540;10.224;2023-08-07T04:20:50;5.57;;;2.30;;
5491;SDS011;2768;53.540;10.224;2023-08-07T04:26:45;6.17;;;2.37;;
5491;SDS011;2768;53.540;10.224;2023-08-07T04:32:38;4.00;;;1.97;;
5491;SDS011;2768;53.540;10.224;2023-08-07T04:38:34;2.50;;;2.20;;
5491;SDS011;2768;53.540;10.224;2023-08-07T04:44:27;4.70;;;2.50;;
5491;SDS011;2768;53.540;10.224;2023-08-07T04:50:21;6.77;;;2.40;;
5491;SDS011;2768;53.540;10.224;2023-08-07T04:56:15;5.10;;;2.07;;
5491;SDS011;2768;53.540;10.224;2023-08-07T05:02:09;3.30;;;2.43;;
5491;SDS011;2768;53.540;10.224;2023-08-07T05:08:03;6.63;;;2.27;;
5491;SDS011;2768;53.540;10.224;2023-08-07T05:13:58;4.40;;;2.30;;
5491;SDS011;2768;53.540;10.224;2023-08-07T05:19:52;7.30;;;2.37;;
5491;SDS011;2768;53.540;10.224;2023-08-07T05:25:45;2.80;;;2.03;;
5491;SDS011;2768;53.540;10.224;2023-08-07T05:31:41;6.67;;;2.83;;
5491;SDS011;2768;53.540;10.224;2023-08-07T05:37:35;6.70;;;2.53;;
5491;SDS011;2768;53.540;10.224;2023-08-07T05:43:28;6.50;;;2.20;;
5491;SDS011;2768;53.540;10.224;2023-08-07T05:49:22;5.83;;;2.37;;
5491;SDS011;2768;53.540;10.224;2023-08-07T05:55:17;7.33;;;2.37;;
5491;SDS011;2768;53.540;10.224;2023-08-07T06:01:10;6.80;;;2.40;;
5491;SDS011;2768;53.540;10.224;2023-08-07T06:07:04;6.00;;;2.17;;
5491;SDS011;2768;53.540;10.224;2023-08-07T06:12:58;6.07;;;2.30;;
5491;SDS011;2768;53.540;10.224;2023-08-07T06:18:52;4.70;;;2.03;;
5491;SDS011;2768;53.540;10.224;2023-08-07T06:24:46;8.40;;;2.53;;
5491;SDS011;2768;53.540;10.224;2023-08-07T06:30:40;10.50;;;2.37;;
5491;SDS011;2768;53.540;10.224;2023-08-07T06:36:33;9.20;;;3.13;;
5491;SDS011;2768;53.540;10.224;2023-08-07T06:42:28;9.00;;;3.00;;
5491;SDS011;2768;53.540;10.224;2023-08-07T06:48:21;10.03;;;3.20;;
5491;SDS011;2768;53.540;10.224;2023-08-07T06:54:15;7.70;;;2.70;;
5491;SDS011;2768;53.540;10.224;2023-08-07T07:00:10;10.60;;;2.93;;
5491;SDS011;2768;53.540;10.224;2023-08-07T07:06:04;14.17;;;3.07;;
5491;SDS011;2768;53.540;10.224;2023-08-07T07:11:58;14.73;;;3.43;;
5491;SDS011;2768;53.540;10.224;2023-08-07T07:17:53;7.77;;;3.43;;
5491;SDS011;2768;53.540;10.224;2023-08-07T07:23:46;11.97;;;3.30;;
5491;SDS011;2768;53.540;10.224;2023-08-07T07:29:40;8.60;;;3.20;;
5491;SDS011;2768;53.540;10.224;2023-08-07T07:35:38;8.73;;;2.83;;
5491;SDS011;2768;53.540;10.224;2023-08-07T07:41:32;9.20;;;3.27;;
5491;SDS011;2768;53.540;10.224;2023-08-07T07:47:25;7.80;;;2.57;;
5491;SDS011;2768;53.540;10.224;2023-08-07T07:53:19;10.37;;;3.07;;
5491;SDS011;2768;53.540;10.224;2023-08-07T07:59:16;8.40;;;3.43;;
5491;SDS011;2768;53.540;10.224;2023-08-07T08:05:10;7.10;;;3.30;;
5491;SDS011;2768;53.540;10.224;2023-08-07T08:11:06;10.93;;;3.00;;
5491;SDS011;2768;53.540;10.224;2023-08-07T08:16:59;11.13;;;3.30;;
5491;SDS011;2768;53.540;10.224;2023-08-07T08:22:52;11.30;;;3.67;;
5491;SDS011;2768;53.540;10.224;2023-08-07T08:28:47;9.27;;;3.00;;
5491;SDS011;2768;53.540;10.224;2023-08-07T08:34:40;10.30;;;3.60;;
5491;SDS011;2768;53.540;10.224;2023-08-07T08:40:35;8.60;;;3.07;;
5491;SDS011;2768;53.540;10.224;2023-08-07T08:46:31;9.63;;;3.80;;
5491;SDS011;2768;53.540;10.224;2023-08-07T08:52:26;12.90;;;3.93;;
5491;SDS011;2768;53.540;10.224;2023-08-07T08:58:20;9.90;;;3.07;;
5491;SDS011;2768;53.540;10.224;2023-08-07T09:04:16;16.03;;;3.97;;
5491;SDS011;2768;53.540;10.224;2023-08-07T09:10:10;10.20;;;3.57;;
5491;SDS011;2768;53.540;10.224;2023-08-07T09:16:04;11.20;;;3.83;;
5491;SDS011;2768;53.540;10.224;2023-08-07T09:22:01;11.57;;;3.50;;
5491;SDS011;2768;53.540;10.224;2023-08-07T09:27:55;13.73;;;4.60;;
5491;SDS011;2768;53.540;10.224;2023-08-07T09:33:49;12.93;;;3.70;;
5491;SDS011;2768;53.540;10.224;2023-08-07T09:39:44;8.93;;;2.57;;
5491;SDS011;2768;53.540;10.224;2023-08-07T09:45:38;8.07;;;3.37;;
5491;SDS011;2768;53.540;10.224;2023-08-07T09:51:38;7.60;;;2.83;;
5491;SDS011;2768;53.540;10.224;2023-08-07T09:57:36;8.87;;;3.13;;
5491;SDS011;2768;53.540;10.224;2023-08-07T10:03:29;10.73;;;3.00;;
5491;SDS011;2768;53.540;10.224;2023-08-07T10:09:24;8.30;;;2.83;;
5491;SDS011;2768;53.540;10.224;2023-08-07T10:15:21;7.30;;;2.43;;
5491;SDS011;2768;53.540;10.224;2023-08-07T10:21:16;7.83;;;3.20;;
5491;SDS011;2768;53.540;10.224;2023-08-07T10:27:09;8.53;;;2.97;;
5491;SDS011;2768;53.540;10.224;2023-08-07T10:33:07;9.47;;;3.00;;
5491;SDS011;2768;53.540;10.224;2023-08-07T10:39:05;4.90;;;2.17;;
5491;SDS011;2768;53.540;10.224;2023-08-07T10:45:00;9.23;;;3.10;;
5491;SDS011;2768;53.540;10.224;2023-08-07T10:50:57;9.17;;;3.27;;
5491;SDS011;2768;53.540;10.224;2023-08-07T10:56:56;8.30;;;3.20;;
5491;SDS011;2768;53.540;10.224;2023-08-07T11:02:52;5.23;;;2.33;;
5491;SDS011;2768;53.540;10.224;2023-08-07T11:08:49;9.07;;;2.53;;
5491;SDS011;2768;53.540;10.224;2023-08-07T11:14:43;10.37;;;2.60;;
5491;SDS011;2768;53.540;10.224;2023-08-07T11:20:36;7.20;;;2.73;;
5491;SDS011;2768;53.540;10.224;2023-08-07T11:26:32;6.83;;;2.73;;
5491;SDS011;2768;53.540;10.224;2023-08-07T11:32:26;7.17;;;2.40;;
5491;SDS011;2768;53.540;10.224;2023-08-07T11:38:30;4.90;;;1.83;;
5491;SDS011;2768;53.540;10.224;2023-08-07T11:44:26;4.93;;;2.17;;
5491;SDS011;2768;53.540;10.224;2023-08-07T11:50:20;5.87;;;2.20;;
5491;SDS011;2768;53.540;10.224;2023-08-07T11:56:14;5.27;;;2.13;;
5491;SDS011;2768;53.540;10.224;2023-08-07T12:02:10;7.40;;;2.10;;
5491;SDS011;2768;53.540;10.224;2023-08-07T12:08:06;6.57;;;2.00;;
5491;SDS011;2768;53.540;10.224;2023-08-07T12:14:00;6.23;;;2.40;;
5491;SDS011;2768;53.540;10.224;2023-08-07T12:19:57;6.90;;;2.23;;
5491;SDS011;2768;53.540;10.224;2023-08-07T12:25:51;7.57;;;2.10;;
5491;SDS011;2768;53.540;10.224;2023-08-07T12:31:45;4.20;;;1.83;;
5491;SDS011;2768;53.540;10.224;2023-08-07T12:37:40;3.60;;;1.90;;
5491;SDS011;2768;53.540;10.224;2023-08-07T12:43:33;6.40;;;2.10;;
5491;SDS011;2768;53.540;10.224;2023-08-07T12:49:27;7.90;;;2.10;;
5491;SDS011;2768;53.540;10.224;2023-08-07T12:55:22;8.20;;;2.60;;
5491;SDS011;2768;53.540;10.224;2023-08-07T13:01:15;7.43;;;2.60;;
5491;SDS011;2768;53.540;10.224;2023-08-07T13:07:08;8.07;;;2.50;;
5491;SDS011;2768;53.540;10.224;2023-08-07T13:13:03;8.70;;;2.43;;
5491;SDS011;2768;53.540;10.224;2023-08-07T13:18:57;5.80;;;2.67;;
5491;SDS011;2768;53.540;10.224;2023-08-07T13:24:50;7.03;;;2.27;;
5491;SDS011;2768;53.540;10.224;2023-08-07T13:30:45;5.30;;;2.30;;
5491;SDS011;2768;53.540;10.224;2023-08-07T13:36:39;8.13;;;2.43;;
5491;SDS011;2768;53.540;10.224;2023-08-07T13:42:32;10.43;;;3.50;;
5491;SDS011;2768;53.540;10.224;2023-08-07T13:48:27;13.80;;;2.70;;
5491;SDS011;2768;53.540;10.224;2023-08-07T13:54:20;10.43;;;2.90;;
5491;SDS011;2768;53.540;10.224;2023-08-07T14:00:14;7.33;;;2.80;;
5491;SDS011;2768;53.540;10.224;2023-08-07T14:06:09;6.60;;;2.60;;
5491;SDS011;2768;53.540;10.224;2023-08-07T14:12:02;9.00;;;2.87;;
5491;SDS011;2768;53.540;10.224;2023-08-07T14:17:56;11.67;;;3.37;;
5491;SDS011;2768;53.540;10.224;2023-08-07T14:23:51;9.93;;;3.30;;
5491;SDS011;2768;53.540;10.224;2023-08-07T14:29:44;5.50;;;2.80;;
5491;SDS011;2768;53.540;10.224;2023-08-07T14:35:38;9.47;;;3.33;;
5491;SDS011;2768;53.540;10.224;2023-08-07T14:41:33;9.50;;;3.07;;
5491;SDS011;2768;53.540;10.224;2023-08-07T14:47:26;13.43;;;2.80;;
5491;SDS011;2768;53.540;10.224;2023-08-07T14:53:19;10.77;;;3.40;;
5491;SDS011;2768;53.540;10.224;2023-08-07T14:59:14;11.90;;;3.07;;
5491;SDS011;2768;53.540;10.224;2023-08-07T15:05:08;5.80;;;3.00;;
5491;SDS011;2768;53.540;10.224;2023-08-07T15:11:01;8.43;;;2.73;;
5491;SDS011;2768;53.540;10.224;2023-08-07T15:16:56;8.77;;;3.93;;
5491;SDS011;2768;53.540;10.224;2023-08-07T15:22:50;11.60;;;2.97;;
5491;SDS011;2768;53.540;10.224;2023-08-07T15:28:43;6.67;;;3.23;;
5491;SDS011;2768;53.540;10.224;2023-08-07T15:34:38;9.77;;;3.50;;
5491;SDS011;2768;53.540;10.224;2023-08-07T15:40:31;12.00;;;3.40;;
5491;SDS011;2768;53.540;10.224;2023-08-07T15:46:24;7.67;;;3.23;;
5491;SDS011;2768;53.540;10.224;2023-08-07T15:52:19;10.37;;;3.30;;
5491;SDS011;2768;53.540;10.224;2023-08-07T15:58:12;7.50;;;3.17;;
5491;SDS011;2768;53.540;10.224;2023-08-07T16:04:06;8.17;;;3.20;;
5491;SDS011;2768;53.540;10.224;2023-08-07T16:10:03;11.77;;;3.73;;
5491;SDS011;2768;53.540;10.224;2023-08-07T16:15:57;12.00;;;3.77;;
5491;SDS011;2768;53.540;10.224;2023-08-07T16:21:51;12.63;;;3.70;;
5491;SDS011;2768;53.540;10.224;2023-08-07T16:27:45;7.83;;;3.40;;
5491;SDS011;2768;53.540;10.224;2023-08-07T16:33:40;11.10;;;3.20;;
5491;SDS011;2768;53.540;10.224;2023-08-07T16:39:34;14.27;;;4.17;;
5491;SDS011;2768;53.540;10.224;2023-08-07T16:45:29;12.03;;;3.40;;
5491;SDS011;2768;53.540;10.224;2023-08-07T16:51:22;17.23;;;3.80;;
5491;SDS011;2768;53.540;10.224;2023-08-07T16:57:16;11.70;;;3.23;;
5491;SDS011;2768;53.540;10.224;2023-08-07T17:03:10;12.30;;;3.93;;
5491;SDS011;2768;53.540;10.224;2023-08-07T17:09:05;7.90;;;2.87;;
5491;SDS011;2768;53.540;10.224;2023-08-07T17:14:59;9.60;;;3.50;;
5491;SDS011;2768;53.540;10.224;2023-08-07T17:20:53;16.90;;;3.57;;
5491;SDS011;2768;53.540;10.224;2023-08-07T17:26:48;7.20;;;3.67;;
5491;SDS011;2768;53.540;10.224;2023-08-07T17:32:42;9.73;;;4.13;;
5491;SDS011;2768;53.540;10.224;2023-08-07T17:38:37;9.93;;;3.20;;
5491;SDS011;2768;53.540;10.224;2023-08-07T17:44:30;9.17;;;2.83;;
5491;SDS011;2768;53.540;10.224;2023-08-07T17:50:23;10.73;;;3.50;;
5491;SDS011;2768;53.540;10.224;2023-08-07T17:56:18;9.30;;;2.67;;
5491;SDS011;2768;53.540;10.224;2023-08-07T18:02:13;6.17;;;2.60;;
5491;SDS011;2768;53.540;10.224;2023-08-07T18:08:07;9.23;;;3.50;;
5491;SDS011;2768;53.540;10.224;2023-08-07T18:14:02;7.00;;;2.60;;
5491;SDS011;2768;53.540;10.224;2023-08-07T18:19:56;6.77;;;2.37;;
5491;SDS011;2768;53.540;10.224;2023-08-07T18:25:49;5.67;;;2.20;;
5491;SDS011;2768;53.540;10.224;2023-08-07T18:31:44;6.17;;;2.37;;
5491;SDS011;2768;53.540;10.224;2023-08-07T18:37:37;17.70;;;3.67;;
5491;SDS011;2768;53.540;10.224;2023-08-07T18:43:30;7.20;;;2.70;;
5491;SDS011;2768;53.540;10.224;2023-08-07T18:49:25;8.33;;;3.37;;
5491;SDS011;2768;53.540;10.224;2023-08-07T18:55:18;12.67;;;3.07;;
5491;SDS011;2768;53.540;10.224;2023-08-07T19:01:11;5.03;;;3.17;;
5491;SDS011;2768;53.540;10.224;2023-08-07T19:07:06;12.23;;;3.43;;
5491;SDS011;2768;53.540;10.224;2023-08-07T19:13:01;9.63;;;3.37;;
5491;SDS011;2768;53.540;10.224;2023-08-07T19:18:54;8.33;;;3.30;;
5491;SDS011;2768;53.540;10.224;2023-08-07T19:24:49;11.77;;;3.70;;
5491;SDS011;2768;53.540;10.224;2023-08-07T19:30:42;11.87;;;4.30;;
5491;SDS011;2768;53.540;10.224;2023-08-07T19:36:46;9.93;;;3.60;;
5491;SDS011;2768;53.540;10.224;2023-08-07T19:42:43;8.90;;;3.37;;
5491;SDS011;2768;53.540;10.224;2023-08-07T19:48:36;7.80;;;4.00;;
5491;SDS011;2768;53.540;10.224;2023-08-07T19:54:29;12.60;;;4.00;;
5491;SDS011;2768;53.540;10.224;2023-08-07T20:00:24;8.87;;;3.87;;
5491;SDS011;2768;53.540;10.224;2023-08-07T20:06:17;7.70;;;3.50;;
5491;SDS011;2768;53.540;10.224;2023-08-07T20:12:11;12.50;;;4.67;;
5491;SDS011;2768;53.540;10.224;2023-08-07T20:18:07;6.53;;;3.40;;
5491;SDS011;2768;53.540;10.224;2023-08-07T20:24:01;10.63;;;3.30;;
5491;SDS011;2768;53.540;10.224;2023-08-07T20:29:54;8.90;;;3.63;;
5491;SDS011;2768;53.540;10.224;2023-08-07T20:35:49;7.13;;;2.40;;
5491;SDS011;2768;53.540;10.224;2023-08-07T20:41:43;7.87;;;3.13;;
5491;SDS011;2768;53.540;10.224;2023-08-07T20:47:36;7.93;;;2.93;;
5491;SDS011;2768;53.540;10.224;2023-08-07T20:53:31;8.67;;;3.10;;
5491;SDS011;2768;53.540;10.224;2023-08-07T20:59:25;7.40;;;3.10;;
5491;SDS011;2768;53.540;10.224;2023-08-07T21:05:18;5.97;;;2.80;;
5491;SDS011;2768;53.540;10.224;2023-08-07T21:11:13;7.13;;;3.43;;
5491;SDS011;2768;53.540;10.224;2023-08-07T21:17:07;9.30;;;3.30;;
5491;SDS011;2768;53.540;10.224;2023-08-07T21:23:01;4.60;;;2.50;;
5491;SDS011;2768;53.540;10.224;2023-08-07T21:28:56;9.30;;;2.47;;
5491;SDS011;2768;53.540;10.224;2023-08-07T21:34:52;7.10;;;2.27;;
5491;SDS011;2768;53.540;10.224;2023-08-07T21:40:46;7.77;;;2.90;;
5491;SDS011;2768;53.540;10.224;2023-08-07T21:46:40;3.87;;;1.90;;
5491;SDS011;2768;53.540;10.224;2023-08-07T21:52:34;4.97;;;1.97;;
5491;SDS011;2768;53.540;10.224;2023-08-07T21:58:28;5.03;;;2.80;;
5491;SDS011;2768;53.540;10.224;2023-08-07T22:04:22;6.63;;;2.13;;
5491;SDS011;2768;53.540;10.224;2023-08-07T22:10:16;6.80;;;2.27;;
5491;SDS011;2768;53.540;10.224;2023-08-07T22:16:09;6.87;;;2.80;;
5491;SDS011;2768;53.540;10.224;2023-08-07T22:22:04;3.30;;;1.73;;
5491;SDS011;2768;53.540;10.224;2023-08-07T22:27:57;5.47;;;2.20;;
5491;SDS011;2768;53.540;10.224;2023-08-07T22:33:51;6.57;;;2.30;;
5491;SDS011;2768;53.540;10.224;2023-08-07T22:39:47;7.87;;;2.53;;
5491;SDS011;2768;53.540;10.224;2023-08-07T22:45:41;4.10;;;1.93;;
5491;SDS011;2768;53.540;10.224;2023-08-07T22:51:35;7.03;;;2.20;;
5491;SDS011;2768;53.540;10.224;2023-08-07T22:57:30;5.13;;;2.60;;
5491;SDS011;2768;53.540;10.224;2023-08-07T23:03:23;4.93;;;2.80;;
5491;SDS011;2768;53.540;10.224;2023-08-07T23:09:16;7.83;;;3.03;;
5491;SDS011;2768;53.540;10.224;2023-08-07T23:15:12;5.07;;;1.93;;
5491;SDS011;2768;53.540;10.224;2023-08-07T23:21:06;4.30;;;2.03;;
5491;SDS011;2768;53.540;10.224;2023-08-07T23:26:59;5.57;;;2.07;;
5491;SDS011;2768;53.540;10.224;2023-08-07T23:32:54;2.50;;;1.83;;
5491;SDS011;2768;53.540;10.224;2023-08-07T23:38:47;6.93;;;1.83;;
5491;SDS011;2768;53.540;10.224;2023-08-07T23:44:41;3.80;;;1.70;;
5491;SDS011;2768;53.540;10.224;2023-08-07T23:50:36;3.83;;;1.80;;
5491;SDS011;2768;53.540;10.224;2023-08-07T23:56:29;4.73;;;2.00;;
